createdAt,value
2019-05-25T00:00:32.756Z,10.80
2019-05-25T00:03:03.758Z,11.33
2019-05-25T00:05:34.761Z,10.80
2019-05-25T00:08:05.741Z,12.20
2019-05-25T00:10:37.696Z,12.63
2019-05-25T00:13:09.024Z,13.03
2019-05-25T00:15:40.227Z,12.37
2019-05-25T00:18:11.618Z,13.97
2019-05-25T00:20:43.672Z,16.27
2019-05-25T00:23:14.717Z,15.37
2019-05-25T00:25:45.651Z,14.90
2019-05-25T00:28:16.745Z,15.73
2019-05-25T00:30:47.575Z,15.90
2019-05-25T00:33:18.616Z,14.57
2019-05-25T00:35:49.701Z,15.50
2019-05-25T00:38:21.388Z,16.17
2019-05-25T00:40:53.636Z,16.73
2019-05-25T00:43:24.754Z,15.23
2019-05-25T00:45:56.073Z,17.40
2019-05-25T00:48:27.274Z,16.50
2019-05-25T00:50:58.562Z,17.10
2019-05-25T00:53:30.718Z,19.27
2019-05-25T00:56:02.277Z,17.40
2019-05-25T00:58:33.697Z,16.90
2019-05-25T01:01:09.712Z,16.70
2019-05-25T01:03:41.110Z,17.57
2019-05-25T01:06:12.460Z,16.53
2019-05-25T01:08:43.717Z,16.27
2019-05-25T01:11:15.325Z,15.80
2019-05-25T01:13:46.456Z,15.00
2019-05-25T01:16:17.361Z,14.97
2019-05-25T01:18:49.490Z,14.90
2019-05-25T01:21:20.385Z,19.83
2019-05-25T01:23:51.321Z,31.73
2019-05-25T01:26:23.016Z,14.00
2019-05-25T01:28:53.865Z,13.90
2019-05-25T01:31:24.845Z,11.57
2019-05-25T01:33:55.992Z,12.50
2019-05-25T01:36:27.303Z,9.37
2019-05-25T01:38:58.182Z,8.80
2019-05-25T01:41:29.402Z,8.93
2019-05-25T01:44:00.467Z,8.23
2019-05-25T01:46:31.398Z,7.40
2019-05-25T01:49:02.485Z,7.00
2019-05-25T01:51:33.603Z,7.20
2019-05-25T01:54:07.139Z,8.00
2019-05-25T01:56:41.958Z,6.40
2019-05-25T01:59:12.799Z,7.60
2019-05-25T02:01:44.068Z,6.30
2019-05-25T02:04:15.069Z,7.37
2019-05-25T02:06:46.130Z,7.27
2019-05-25T02:09:17.139Z,7.37
2019-05-25T02:11:48.141Z,6.60
2019-05-25T02:14:19.062Z,6.57
2019-05-25T02:16:50.190Z,6.23
2019-05-25T02:19:21.071Z,6.17
2019-05-25T02:21:51.969Z,5.30
2019-05-25T02:24:23.122Z,5.70
2019-05-25T02:26:54.065Z,5.40
2019-05-25T02:29:25.179Z,4.67
2019-05-25T02:31:56.011Z,5.17
2019-05-25T02:34:26.936Z,5.63
2019-05-25T02:36:58.048Z,5.77
2019-05-25T02:39:29.099Z,6.23
2019-05-25T02:42:00.036Z,4.90
2019-05-25T02:44:30.909Z,5.37
2019-05-25T02:47:01.809Z,5.50
2019-05-25T02:49:33.752Z,5.53
2019-05-25T02:52:04.976Z,6.50
2019-05-25T02:54:35.719Z,6.00
2019-05-25T02:57:06.860Z,6.77
2019-05-25T02:59:37.905Z,7.90
2019-05-25T03:02:09.014Z,8.70
2019-05-25T03:04:39.934Z,8.80
2019-05-25T03:07:12.010Z,8.80
2019-05-25T03:09:45.769Z,8.10
2019-05-25T03:12:17.902Z,8.27
2019-05-25T03:14:49.390Z,10.17
2019-05-25T03:17:20.722Z,10.27
2019-05-25T03:19:52.189Z,12.40
2019-05-25T03:22:23.455Z,15.10
2019-05-25T03:24:54.663Z,13.80
2019-05-25T03:27:25.888Z,16.17
2019-05-25T03:29:56.685Z,16.07
2019-05-25T03:32:27.826Z,14.77
2019-05-25T03:34:58.887Z,16.73
2019-05-25T03:37:30.022Z,16.20
2019-05-25T03:40:00.998Z,15.27
2019-05-25T03:42:32.180Z,16.70
2019-05-25T03:45:03.484Z,15.40
2019-05-25T03:47:34.804Z,13.63
2019-05-25T03:50:06.903Z,13.73
2019-05-25T03:52:38.140Z,12.80
2019-05-25T03:55:09.355Z,12.80
2019-05-25T03:57:40.901Z,14.87
2019-05-25T04:00:12.653Z,14.13
2019-05-25T04:02:44.041Z,13.90
2019-05-25T04:05:15.313Z,13.10
2019-05-25T04:07:46.620Z,13.87
2019-05-25T04:10:17.932Z,13.80
2019-05-25T04:12:51.061Z,15.57
2019-05-25T04:15:22.686Z,16.10
2019-05-25T04:17:53.952Z,14.50
2019-05-25T04:20:25.248Z,15.70
2019-05-25T04:22:56.583Z,15.20
2019-05-25T04:25:27.972Z,14.60
2019-05-25T04:27:59.273Z,15.80
2019-05-25T04:30:30.855Z,14.23
2019-05-25T04:33:02.022Z,16.30
2019-05-25T04:35:33.347Z,14.90
2019-05-25T04:38:05.672Z,14.80
2019-05-25T04:40:36.960Z,15.10
2019-05-25T04:43:08.108Z,13.47
2019-05-25T04:45:39.207Z,14.70
2019-05-25T04:48:10.516Z,13.50
2019-05-25T04:50:41.634Z,13.70
2019-05-25T04:53:12.989Z,11.33
2019-05-25T04:55:44.014Z,13.10
2019-05-25T04:58:19.350Z,13.30
2019-05-25T05:00:50.182Z,13.43
2019-05-25T05:03:22.104Z,14.60
2019-05-25T05:05:53.740Z,12.50
2019-05-25T05:08:25.113Z,12.10
2019-05-25T05:10:56.226Z,12.23
2019-05-25T05:13:27.532Z,12.03
2019-05-25T05:15:58.619Z,12.67
2019-05-25T05:18:31.413Z,12.93
2019-05-25T05:21:03.721Z,13.13
2019-05-25T05:23:34.636Z,13.27
2019-05-25T05:26:05.824Z,14.10
2019-05-25T05:28:36.805Z,14.43
2019-05-25T05:31:21.003Z,14.20
2019-05-25T05:33:40.496Z,14.40
2019-05-25T05:36:12.533Z,14.40
2019-05-25T05:38:44.369Z,14.43
2019-05-25T05:41:17.634Z,14.77
2019-05-25T05:43:51.180Z,13.97
2019-05-25T05:46:22.799Z,15.53
2019-05-25T05:48:55.176Z,13.80
2019-05-25T05:51:27.962Z,13.17
2019-05-25T05:53:59.938Z,12.95
2019-05-25T05:56:30.792Z,13.07
2019-05-25T05:59:01.916Z,13.20
2019-05-25T06:01:32.779Z,13.20
2019-05-25T06:04:04.128Z,13.67
2019-05-25T06:06:35.072Z,13.47
2019-05-25T06:09:12.752Z,12.90
2019-05-25T06:11:43.834Z,12.23
2019-05-25T06:14:15.067Z,13.37
2019-05-25T06:16:45.936Z,12.77
2019-05-25T06:19:17.162Z,13.20
2019-05-25T06:21:48.370Z,11.77
2019-05-25T06:24:19.202Z,12.60
2019-05-25T06:26:50.571Z,12.37
2019-05-25T06:29:21.573Z,11.90
2019-05-25T06:31:52.689Z,11.50
2019-05-25T06:34:23.773Z,11.60
2019-05-25T06:36:54.589Z,6.23
2019-05-25T06:39:25.697Z,6.53
2019-05-25T06:41:56.572Z,7.30
2019-05-25T06:44:46.025Z,5.90
2019-05-25T06:47:17.004Z,6.10
2019-05-25T06:49:48.083Z,7.13
2019-05-25T06:52:19.092Z,5.87
2019-05-25T06:54:50.144Z,8.13
2019-05-25T06:57:21.164Z,6.53
2019-05-25T06:59:52.407Z,7.33
2019-05-25T07:02:26.390Z,7.93
2019-05-25T07:04:57.698Z,8.70
2019-05-25T07:07:28.747Z,8.97
2019-05-25T07:09:59.890Z,10.33
2019-05-25T07:12:31.069Z,9.33
2019-05-25T07:15:02.431Z,10.47
2019-05-25T07:17:33.718Z,9.90
2019-05-25T07:20:05.497Z,8.47
2019-05-25T07:22:36.525Z,9.00
2019-05-25T07:25:08.007Z,11.43
2019-05-25T07:27:39.019Z,8.00
2019-05-25T07:30:10.972Z,8.53
2019-05-25T07:32:42.127Z,10.23
2019-05-25T07:35:14.472Z,7.73
2019-05-25T07:37:45.317Z,7.40
2019-05-25T07:40:16.644Z,8.60
2019-05-25T07:42:47.696Z,8.60
2019-05-25T07:45:21.805Z,8.43
2019-05-25T07:47:52.820Z,8.77
2019-05-25T07:50:24.510Z,13.50
2019-05-25T07:52:55.800Z,13.67
2019-05-25T07:55:27.568Z,9.93
2019-05-25T07:58:13.578Z,10.50
2019-05-25T08:00:31.937Z,11.53
2019-05-25T08:03:03.182Z,10.43
2019-05-25T08:05:34.557Z,10.10
2019-05-25T08:08:06.026Z,9.13
2019-05-25T08:10:37.400Z,9.60
2019-05-25T08:13:09.320Z,8.60
2019-05-25T08:15:40.640Z,9.57
2019-05-25T08:18:12.426Z,8.20
2019-05-25T08:20:47.018Z,8.43
2019-05-25T08:23:16.793Z,7.50
2019-05-25T08:25:49.707Z,8.90
2019-05-25T08:28:32.138Z,7.10
2019-05-25T08:30:53.433Z,7.10
2019-05-25T08:33:24.643Z,5.27
2019-05-25T08:35:55.708Z,6.00
2019-05-25T08:38:26.726Z,5.10
2019-05-25T08:40:58.195Z,4.40
2019-05-25T08:43:29.353Z,4.53
2019-05-25T08:46:00.651Z,4.87
2019-05-25T08:48:31.720Z,4.80
2019-05-25T08:51:02.995Z,4.83
2019-05-25T08:53:42.334Z,5.20
2019-05-25T08:56:13.821Z,6.30
2019-05-25T08:58:48.526Z,7.00
2019-05-25T09:01:17.698Z,7.90
2019-05-25T09:03:48.912Z,9.60
2019-05-25T09:06:20.208Z,10.90
2019-05-25T09:08:51.155Z,10.93
2019-05-25T09:11:22.393Z,9.20
2019-05-25T09:13:53.554Z,10.93
2019-05-25T09:16:24.671Z,7.07
2019-05-25T09:18:55.645Z,6.60
2019-05-25T09:21:26.790Z,6.70
2019-05-25T09:23:58.014Z,8.53
2019-05-25T09:26:29.313Z,7.33
2019-05-25T09:29:04.588Z,8.10
2019-05-25T09:31:33.758Z,7.77
2019-05-25T09:34:05.097Z,7.50
2019-05-25T09:36:36.899Z,6.07
2019-05-25T09:39:09.180Z,6.23
2019-05-25T09:41:40.680Z,4.97
2019-05-25T09:44:12.132Z,4.90
2019-05-25T09:46:44.815Z,5.10
2019-05-25T09:49:17.706Z,4.70
2019-05-25T09:51:49.583Z,3.17
2019-05-25T09:54:20.634Z,4.60
2019-05-25T09:56:51.857Z,3.80
2019-05-25T09:59:22.872Z,3.67
2019-05-25T10:01:54.263Z,3.30
2019-05-25T10:04:25.540Z,7.30
2019-05-25T10:06:56.868Z,3.47
2019-05-25T10:09:28.009Z,3.40
2019-05-25T10:11:59.306Z,4.83
2019-05-25T10:14:30.665Z,2.80
2019-05-25T10:17:02.344Z,2.70
2019-05-25T10:19:35.194Z,3.03
2019-05-25T10:22:06.978Z,3.07
2019-05-25T10:24:38.518Z,3.00
2019-05-25T10:27:10.245Z,3.00
2019-05-25T10:29:42.401Z,3.23
2019-05-25T10:32:13.628Z,2.77
2019-05-25T10:34:44.618Z,6.30
2019-05-25T10:37:16.092Z,3.57
2019-05-25T10:39:47.134Z,3.50
2019-05-25T10:42:18.590Z,3.90
2019-05-25T10:44:49.664Z,3.50
2019-05-25T10:47:21.190Z,3.90
2019-05-25T10:49:52.248Z,3.70
2019-05-25T10:52:25.173Z,8.37
2019-05-25T10:54:56.741Z,3.80
2019-05-25T10:57:27.961Z,6.80
2019-05-25T10:59:59.184Z,4.70
2019-05-25T11:02:34.060Z,6.50
2019-05-25T11:05:05.879Z,5.60
2019-05-25T11:07:37.182Z,4.57
2019-05-25T11:10:09.048Z,4.30
2019-05-25T11:12:40.522Z,5.17
2019-05-25T11:15:12.128Z,4.57
2019-05-25T11:17:43.771Z,4.30
2019-05-25T11:20:15.338Z,3.50
2019-05-25T11:22:46.257Z,3.77
2019-05-25T11:25:18.875Z,4.73
2019-05-25T11:27:50.081Z,4.00
2019-05-25T11:30:22.851Z,4.13
2019-05-25T11:33:02.384Z,5.50
2019-05-25T11:35:34.244Z,5.03
2019-05-25T11:38:05.537Z,5.40
2019-05-25T11:40:36.873Z,7.00
2019-05-25T11:43:11.320Z,4.73
2019-05-25T11:45:45.351Z,4.30
2019-05-25T11:48:15.615Z,2.90
2019-05-25T11:50:46.594Z,2.30
2019-05-25T11:53:18.122Z,2.40
2019-05-25T11:55:49.491Z,3.80
2019-05-25T11:58:21.125Z,4.30
2019-05-25T12:00:52.439Z,3.60
2019-05-25T12:03:23.917Z,3.90
2019-05-25T12:05:55.329Z,4.03
2019-05-25T12:08:26.718Z,3.40
2019-05-25T12:10:57.945Z,4.00
2019-05-25T12:13:32.066Z,3.70
2019-05-25T12:16:03.830Z,4.40
2019-05-25T12:18:34.940Z,6.37
2019-05-25T12:21:06.491Z,6.80
2019-05-25T12:23:37.781Z,4.93
2019-05-25T12:26:10.206Z,4.40
2019-05-25T12:28:41.683Z,3.63
2019-05-25T12:31:13.688Z,3.90
2019-05-25T12:33:45.462Z,3.87
2019-05-25T12:36:17.358Z,3.70
2019-05-25T12:38:49.171Z,4.10
2019-05-25T12:41:20.901Z,3.70
2019-05-25T12:43:52.759Z,3.15
2019-05-25T12:46:24.118Z,6.03
2019-05-25T12:48:55.810Z,2.93
2019-05-25T12:51:27.099Z,3.67
2019-05-25T12:53:58.648Z,3.00
2019-05-25T12:56:29.992Z,3.60
2019-05-25T12:59:01.396Z,4.03
2019-05-25T13:01:32.742Z,3.57
2019-05-25T13:04:04.063Z,3.20
2019-05-25T13:06:35.473Z,2.70
2019-05-25T13:09:08.460Z,3.20
2019-05-25T13:11:39.608Z,2.77
2019-05-25T13:14:14.387Z,3.20
2019-05-25T13:16:44.699Z,3.00
2019-05-25T13:19:16.429Z,2.90
2019-05-25T13:21:47.312Z,2.50
2019-05-25T13:24:18.393Z,2.50
2019-05-25T13:26:49.429Z,2.80
2019-05-25T13:29:20.376Z,2.20
2019-05-25T13:31:51.491Z,3.10
2019-05-25T13:34:23.482Z,3.20
2019-05-25T13:36:56.197Z,3.53
2019-05-25T13:39:28.532Z,2.97
2019-05-25T13:42:00.339Z,3.80
2019-05-25T13:44:31.525Z,7.37
2019-05-25T13:47:03.217Z,4.00
2019-05-25T13:49:34.460Z,3.77
2019-05-25T13:52:06.131Z,4.77
2019-05-25T13:54:37.646Z,2.73
2019-05-25T13:57:09.082Z,2.70
2019-05-25T13:59:40.821Z,3.10
2019-05-25T14:02:11.934Z,2.80
2019-05-25T14:04:46.094Z,3.20
2019-05-25T14:07:18.176Z,2.47
2019-05-25T14:09:49.188Z,2.30
2019-05-25T14:12:20.295Z,2.37
2019-05-25T14:14:51.479Z,3.00
2019-05-25T14:17:22.473Z,2.50
2019-05-25T14:19:53.524Z,3.77
2019-05-25T14:22:24.495Z,2.33
2019-05-25T14:24:55.557Z,2.00
2019-05-25T14:27:26.504Z,2.73
2019-05-25T14:29:57.470Z,3.50
2019-05-25T14:32:28.574Z,3.20
2019-05-25T14:34:59.490Z,4.70
2019-05-25T14:37:30.342Z,2.40
2019-05-25T14:40:01.378Z,3.30
2019-05-25T14:42:32.787Z,3.50
2019-05-25T14:45:05.737Z,2.47
2019-05-25T14:47:36.974Z,3.03
2019-05-25T14:50:08.464Z,3.00
2019-05-25T14:52:42.874Z,2.43
2019-05-25T14:55:12.641Z,2.63
2019-05-25T14:57:43.492Z,2.67
2019-05-25T15:00:14.789Z,3.10
2019-05-25T15:02:47.515Z,2.40
2019-05-25T15:05:18.808Z,2.70
2019-05-25T15:07:49.833Z,2.90
2019-05-25T15:10:21.476Z,3.20
2019-05-25T15:12:53.209Z,2.80
2019-05-25T15:15:31.791Z,2.77
2019-05-25T15:18:03.752Z,2.50
2019-05-25T15:20:35.309Z,3.07
2019-05-25T15:23:06.413Z,3.50
2019-05-25T15:25:38.691Z,2.90
2019-05-25T15:28:09.569Z,5.00
2019-05-25T15:30:40.578Z,2.50
2019-05-25T15:33:11.824Z,5.93
2019-05-25T15:35:42.838Z,6.70
2019-05-25T15:38:14.094Z,2.70
2019-05-25T15:40:45.011Z,4.25
2019-05-25T15:43:16.370Z,3.50
2019-05-25T15:45:47.276Z,4.17
2019-05-25T15:48:19.066Z,3.40
2019-05-25T15:50:50.093Z,3.53
2019-05-25T15:53:21.610Z,8.13
2019-05-25T15:55:53.154Z,8.18
2019-05-25T15:58:24.226Z,32.33
2019-05-25T16:00:55.529Z,5.70
2019-05-25T16:03:26.749Z,5.37
2019-05-25T16:06:00.599Z,3.03
2019-05-25T16:08:32.219Z,3.17
2019-05-25T16:11:03.456Z,7.43
2019-05-25T16:13:34.748Z,6.37
2019-05-25T16:16:06.178Z,10.27
2019-05-25T16:18:38.512Z,3.20
2019-05-25T16:21:11.029Z,4.77
2019-05-25T16:23:42.836Z,4.10
2019-05-25T16:26:14.588Z,4.80
2019-05-25T16:28:46.420Z,6.03
2019-05-25T16:31:17.681Z,5.70
2019-05-25T16:33:48.812Z,4.90
2019-05-25T16:36:20.254Z,4.90
2019-05-25T16:38:51.370Z,4.80
2019-05-25T16:41:22.884Z,5.00
2019-05-25T16:43:54.153Z,4.67
2019-05-25T16:46:25.604Z,6.63
2019-05-25T16:48:56.402Z,6.60
2019-05-25T16:51:28.069Z,6.27
2019-05-25T16:53:59.537Z,7.10
2019-05-25T16:56:30.960Z,5.30
2019-05-25T16:59:02.214Z,6.17
2019-05-25T17:01:47.449Z,8.60
2019-05-25T17:04:06.203Z,5.83
2019-05-25T17:06:41.508Z,7.40
2019-05-25T17:09:12.921Z,7.10
2019-05-25T17:11:46.246Z,6.10
2019-05-25T17:14:18.375Z,4.50
2019-05-25T17:16:49.986Z,4.20
2019-05-25T17:19:21.450Z,3.60
2019-05-25T17:21:53.222Z,3.37
2019-05-25T17:24:24.523Z,3.17
2019-05-25T17:26:55.780Z,3.60
2019-05-25T17:29:27.549Z,3.83
2019-05-25T17:31:58.743Z,4.20
2019-05-25T17:34:50.240Z,2.97
2019-05-25T17:37:21.514Z,5.53
2019-05-25T17:39:52.572Z,3.00
2019-05-25T17:42:23.887Z,2.00
2019-05-25T17:44:55.075Z,2.40
2019-05-25T17:47:26.349Z,3.80
2019-05-25T17:49:57.613Z,3.00
2019-05-25T17:52:30.074Z,9.33
2019-05-25T17:55:01.588Z,3.80
2019-05-25T17:57:33.133Z,4.03
2019-05-25T18:00:04.906Z,7.80
2019-05-25T18:02:37.318Z,4.87
2019-05-25T18:05:10.298Z,7.17
2019-05-25T18:07:41.924Z,7.67
2019-05-25T18:10:13.024Z,4.90
2019-05-25T18:12:46.932Z,4.87
2019-05-25T18:15:25.450Z,6.03
2019-05-25T18:17:56.334Z,5.27
2019-05-25T18:20:27.997Z,4.00
2019-05-25T18:22:59.623Z,6.47
2019-05-25T18:25:30.854Z,7.13
2019-05-25T18:28:02.241Z,4.70
2019-05-25T18:30:33.846Z,4.77
2019-05-25T18:33:05.885Z,9.50
2019-05-25T18:35:37.350Z,7.03
2019-05-25T18:38:08.804Z,5.20
2019-05-25T18:40:40.109Z,6.77
2019-05-25T18:43:11.397Z,6.30
2019-05-25T18:45:42.687Z,6.60
2019-05-25T18:48:14.490Z,4.80
2019-05-25T18:50:45.876Z,5.37
2019-05-25T18:53:17.291Z,7.30
2019-05-25T18:55:49.853Z,10.50
2019-05-25T18:58:21.428Z,6.10
2019-05-25T19:00:52.606Z,20.80
2019-05-25T19:03:23.789Z,7.93
2019-05-25T19:05:54.686Z,7.53
2019-05-25T19:08:38.987Z,5.93
2019-05-25T19:11:10.133Z,5.70
2019-05-25T19:13:41.613Z,7.87
2019-05-25T19:16:12.844Z,5.63
2019-05-25T19:18:44.066Z,6.10
2019-05-25T19:21:15.382Z,7.47
2019-05-25T19:23:46.469Z,5.73
2019-05-25T19:26:17.712Z,5.13
2019-05-25T19:28:48.981Z,6.80
2019-05-25T19:31:21.162Z,6.27
2019-05-25T19:33:52.369Z,6.13
2019-05-25T19:36:23.959Z,6.33
2019-05-25T19:38:58.712Z,9.37
2019-05-25T19:41:30.034Z,7.83
2019-05-25T19:44:01.407Z,8.13
2019-05-25T19:46:33.092Z,7.30
2019-05-25T19:49:04.467Z,6.43
2019-05-25T19:51:37.182Z,9.17
2019-05-25T19:54:08.444Z,6.00
2019-05-25T19:56:39.800Z,13.40
2019-05-25T19:59:12.521Z,8.20
2019-05-25T20:01:43.650Z,7.60
2019-05-25T20:04:15.022Z,9.47
2019-05-25T20:06:45.770Z,8.13
2019-05-25T20:09:17.206Z,10.13
2019-05-25T20:11:48.120Z,14.70
2019-05-25T20:14:19.671Z,10.70
2019-05-25T20:16:51.957Z,11.20
2019-05-25T20:19:23.305Z,9.40
2019-05-25T20:21:54.593Z,11.40
2019-05-25T20:24:26.245Z,10.63
2019-05-25T20:27:01.580Z,31.50
2019-05-25T20:29:31.309Z,12.77
2019-05-25T20:32:02.781Z,10.70
2019-05-25T20:34:34.387Z,12.73
2019-05-25T20:37:06.076Z,11.00
2019-05-25T20:39:37.252Z,14.87
2019-05-25T20:42:08.582Z,10.97
2019-05-25T20:44:40.094Z,13.60
2019-05-25T20:47:11.241Z,11.10
2019-05-25T20:49:42.391Z,10.43
2019-05-25T20:52:13.586Z,11.80
2019-05-25T20:54:45.297Z,10.40
2019-05-25T20:57:16.674Z,9.87
2019-05-25T20:59:48.195Z,12.10
2019-05-25T21:02:21.746Z,11.07
2019-05-25T21:04:53.904Z,13.10
2019-05-25T21:07:25.195Z,9.57
2019-05-25T21:09:56.879Z,10.20
2019-05-25T21:12:28.255Z,8.90
2019-05-25T21:14:59.663Z,9.70
2019-05-25T21:17:30.953Z,11.20
2019-05-25T21:20:02.643Z,11.48
2019-05-25T21:22:34.348Z,14.03
2019-05-25T21:25:06.522Z,11.77
2019-05-25T21:27:38.009Z,11.50
2019-05-25T21:30:10.157Z,11.30
2019-05-25T21:32:41.555Z,10.80
2019-05-25T21:35:14.622Z,11.73
2019-05-25T21:37:46.191Z,12.13
2019-05-25T21:40:18.055Z,11.20
2019-05-25T21:42:49.043Z,12.10
2019-05-25T21:45:20.369Z,14.87
2019-05-25T21:47:55.175Z,12.53
2019-05-25T21:50:24.151Z,11.20
2019-05-25T21:52:55.343Z,13.70
2019-05-25T21:55:26.371Z,12.90
2019-05-25T21:57:57.509Z,12.60
2019-05-25T22:00:29.523Z,12.03
2019-05-25T22:03:01.875Z,12.70
2019-05-25T22:05:32.960Z,12.77
2019-05-25T22:08:03.916Z,11.13
2019-05-25T22:10:35.066Z,11.10
2019-05-25T22:13:05.981Z,11.13
2019-05-25T22:15:37.392Z,11.03
2019-05-25T22:18:08.353Z,10.47
2019-05-25T22:20:39.431Z,12.33
2019-05-25T22:23:10.592Z,12.90
2019-05-25T22:25:41.784Z,10.47
2019-05-25T22:28:12.647Z,11.60
2019-05-25T22:30:43.693Z,10.80
2019-05-25T22:33:14.636Z,13.00
2019-05-25T22:35:46.243Z,9.67
2019-05-25T22:38:17.180Z,11.67
2019-05-25T22:40:48.203Z,9.30
2019-05-25T22:43:19.097Z,11.17
2019-05-25T22:45:50.393Z,9.67
2019-05-25T22:48:21.457Z,10.10
2019-05-25T22:50:52.464Z,13.60
2019-05-25T22:53:23.421Z,11.47
2019-05-25T22:55:54.569Z,11.03
2019-05-25T22:58:25.536Z,9.37
2019-05-25T23:00:56.503Z,10.20
2019-05-25T23:03:27.471Z,9.07
2019-05-25T23:05:58.377Z,9.97
2019-05-25T23:08:29.272Z,10.57
2019-05-25T23:11:04.593Z,9.13
2019-05-25T23:13:35.441Z,9.37
2019-05-25T23:16:06.727Z,9.30
2019-05-25T23:18:37.916Z,8.40
2019-05-25T23:21:09.426Z,8.13
2019-05-25T23:23:40.684Z,9.53
2019-05-25T23:26:12.143Z,12.50
2019-05-25T23:28:44.869Z,10.40
2019-05-25T23:31:16.152Z,9.20
2019-05-25T23:33:47.247Z,8.57
2019-05-25T23:36:18.354Z,6.90
2019-05-25T23:38:49.887Z,6.90
2019-05-25T23:41:21.092Z,7.07
2019-05-25T23:43:52.188Z,5.97
2019-05-25T23:46:23.411Z,8.73
2019-05-25T23:48:54.621Z,6.83
2019-05-25T23:51:25.948Z,5.90
2019-05-25T23:53:57.193Z,5.90
2019-05-25T23:56:29.720Z,5.60
2019-05-25T23:59:00.962Z,6.63
